ROMMA est une association bénévole à but non lucratif. Votre soutien est indispensable : ADHERER à ROMMA ou FAIRE un DON

Granges-lès-Beaumont - (26, Drôme)

Drôme des Collines (155 m)   Longitude: 04°58'E   Latitude: 45°03'N Station partenaire n°123
 

Détail journalier du     <<     >>

Température Precipitation Humidité Pression Vent Dir Rafale Dir. rafale Ensol.
Heure (°C) (mm) (%) (hPa) (km/h) (km/h) (min)
01:00 14.0068100513SSO31SO0
02:00 13.9068100614SSO32SO0
03:00 14.3068100613SSO31S0
04:00 14.1071100612SSO26S0
05:00 14.207010068SSO21S0
06:00 11.707910065NE11ENE0
07:00 12.207610066NE15NE0
08:00 9.708510066ENE15ENE0
09:00 9.508710076NE15E0
10:00 11.608310079E16ENE0
11:00 15.507110077E16ENE10
12:00 16.007010065S18S0
13:00 17.906210068SSO29SO40
14:00 18.4063100618SSO40S60
15:00 18.6061100719SSO44S60
16:00 18.4060100713SSO31SSO60
17:00 17.5061100814SO29SO20
18:00 16.8065100915SO35SO0
19:00 16.9065101019SO40SO0
20:00 16.7065101021SSO42SSO0
21:00 16.2067101119SSO50SSO0
22:00 15.407010128SSO24S0
23:00 13.507710125SSO15SO0
minuit 12.208510136NE10E0

Graphique du 17-12-2019

 

Serveur OMMA